sensor_id;sensor_type;location;lat;lon;timestamp;P1;durP1;ratioP1;P2;durP2;ratioP2
49876;SDS011;35771;48.978;9.294;2022-07-23T00:01:33;11.02;;;5.35;;
49876;SDS011;35771;48.978;9.294;2022-07-23T00:04:00;6.75;;;5.07;;
49876;SDS011;35771;48.978;9.294;2022-07-23T00:06:27;11.70;;;5.47;;
49876;SDS011;35771;48.978;9.294;2022-07-23T00:08:53;10.75;;;4.63;;
49876;SDS011;35771;48.978;9.294;2022-07-23T00:11:23;9.15;;;4.90;;
49876;SDS011;35771;48.978;9.294;2022-07-23T00:13:56;7.93;;;4.70;;
49876;SDS011;35771;48.978;9.294;2022-07-23T00:16:23;5.32;;;4.60;;
49876;SDS011;35771;48.978;9.294;2022-07-23T00:18:50;6.20;;;4.40;;
49876;SDS011;35771;48.978;9.294;2022-07-23T00:21:16;6.50;;;3.97;;
49876;SDS011;35771;48.978;9.294;2022-07-23T00:23:43;5.63;;;4.13;;
49876;SDS011;35771;48.978;9.294;2022-07-23T00:26:09;6.03;;;4.60;;
49876;SDS011;35771;48.978;9.294;2022-07-23T00:28:36;5.50;;;4.22;;
49876;SDS011;35771;48.978;9.294;2022-07-23T00:31:04;5.60;;;4.07;;
49876;SDS011;35771;48.978;9.294;2022-07-23T00:33:30;6.03;;;4.13;;
49876;SDS011;35771;48.978;9.294;2022-07-23T00:35:57;6.07;;;4.07;;
49876;SDS011;35771;48.978;9.294;2022-07-23T00:38:23;5.90;;;4.00;;
49876;SDS011;35771;48.978;9.294;2022-07-23T00:40:50;6.80;;;3.53;;
49876;SDS011;35771;48.978;9.294;2022-07-23T00:43:18;6.88;;;3.45;;
49876;SDS011;35771;48.978;9.294;2022-07-23T00:45:46;6.75;;;4.25;;
49876;SDS011;35771;48.978;9.294;2022-07-23T00:48:14;4.82;;;3.60;;
49876;SDS011;35771;48.978;9.294;2022-07-23T00:50:40;4.47;;;3.72;;
49876;SDS011;35771;48.978;9.294;2022-07-23T00:53:07;5.75;;;3.60;;
49876;SDS011;35771;48.978;9.294;2022-07-23T00:55:34;4.45;;;3.28;;
49876;SDS011;35771;48.978;9.294;2022-07-23T00:58:01;7.60;;;4.25;;
49876;SDS011;35771;48.978;9.294;2022-07-23T01:00:28;4.50;;;4.10;;
49876;SDS011;35771;48.978;9.294;2022-07-23T01:02:55;4.38;;;3.58;;
49876;SDS011;35771;48.978;9.294;2022-07-23T01:05:23;6.22;;;3.30;;
49876;SDS011;35771;48.978;9.294;2022-07-23T01:07:50;5.47;;;3.72;;
49876;SDS011;35771;48.978;9.294;2022-07-23T01:10:17;9.25;;;3.58;;
49876;SDS011;35771;48.978;9.294;2022-07-23T01:12:59;5.15;;;3.35;;
49876;SDS011;35771;48.978;9.294;2022-07-23T01:15:27;4.28;;;3.22;;
49876;SDS011;35771;48.978;9.294;2022-07-23T01:17:54;5.95;;;4.05;;
49876;SDS011;35771;48.978;9.294;2022-07-23T01:20:20;4.78;;;3.60;;
49876;SDS011;35771;48.978;9.294;2022-07-23T01:22:49;5.95;;;4.00;;
49876;SDS011;35771;48.978;9.294;2022-07-23T01:25:16;5.53;;;3.63;;
49876;SDS011;35771;48.978;9.294;2022-07-23T01:27:42;4.00;;;3.40;;
49876;SDS011;35771;48.978;9.294;2022-07-23T01:30:09;5.68;;;4.22;;
49876;SDS011;35771;48.978;9.294;2022-07-23T01:32:36;4.60;;;3.70;;
49876;SDS011;35771;48.978;9.294;2022-07-23T01:35:03;5.03;;;4.03;;
49876;SDS011;35771;48.978;9.294;2022-07-23T01:37:31;4.50;;;3.28;;
49876;SDS011;35771;48.978;9.294;2022-07-23T01:39:59;4.38;;;3.38;;
49876;SDS011;35771;48.978;9.294;2022-07-23T01:42:25;8.90;;;3.60;;
49876;SDS011;35771;48.978;9.294;2022-07-23T01:44:52;3.78;;;3.05;;
49876;SDS011;35771;48.978;9.294;2022-07-23T01:47:18;6.07;;;4.05;;
49876;SDS011;35771;48.978;9.294;2022-07-23T01:49:45;5.22;;;3.75;;
49876;SDS011;35771;48.978;9.294;2022-07-23T01:52:11;4.10;;;3.63;;
49876;SDS011;35771;48.978;9.294;2022-07-23T01:54:38;7.15;;;3.70;;
49876;SDS011;35771;48.978;9.294;2022-07-23T01:57:06;5.07;;;3.47;;
49876;SDS011;35771;48.978;9.294;2022-07-23T01:59:33;6.82;;;3.50;;
49876;SDS011;35771;48.978;9.294;2022-07-23T02:02:00;6.53;;;3.72;;
49876;SDS011;35771;48.978;9.294;2022-07-23T02:04:28;4.10;;;3.70;;
49876;SDS011;35771;48.978;9.294;2022-07-23T02:06:55;4.85;;;4.00;;
49876;SDS011;35771;48.978;9.294;2022-07-23T02:09:21;5.63;;;3.97;;
49876;SDS011;35771;48.978;9.294;2022-07-23T02:11:49;7.10;;;3.85;;
49876;SDS011;35771;48.978;9.294;2022-07-23T02:14:17;8.73;;;3.90;;
49876;SDS011;35771;48.978;9.294;2022-07-23T02:16:43;4.53;;;3.33;;
49876;SDS011;35771;48.978;9.294;2022-07-23T02:19:10;5.75;;;4.38;;
49876;SDS011;35771;48.978;9.294;2022-07-23T02:21:36;7.50;;;4.13;;
49876;SDS011;35771;48.978;9.294;2022-07-23T02:24:03;4.15;;;3.60;;
49876;SDS011;35771;48.978;9.294;2022-07-23T02:26:30;6.65;;;4.18;;
49876;SDS011;35771;48.978;9.294;2022-07-23T02:28:59;6.63;;;3.93;;
49876;SDS011;35771;48.978;9.294;2022-07-23T02:31:27;4.80;;;3.47;;
49876;SDS011;35771;48.978;9.294;2022-07-23T02:33:54;7.22;;;4.13;;
49876;SDS011;35771;48.978;9.294;2022-07-23T02:36:20;4.13;;;3.72;;
49876;SDS011;35771;48.978;9.294;2022-07-23T02:38:47;6.55;;;4.22;;
49876;SDS011;35771;48.978;9.294;2022-07-23T02:41:13;9.23;;;4.30;;
49876;SDS011;35771;48.978;9.294;2022-07-23T02:43:43;5.53;;;3.70;;
49876;SDS011;35771;48.978;9.294;2022-07-23T02:46:09;4.13;;;3.72;;
49876;SDS011;35771;48.978;9.294;2022-07-23T02:48:37;8.23;;;3.72;;
49876;SDS011;35771;48.978;9.294;2022-07-23T02:51:04;6.78;;;3.88;;
49876;SDS011;35771;48.978;9.294;2022-07-23T02:53:31;4.85;;;3.83;;
49876;SDS011;35771;48.978;9.294;2022-07-23T02:55:57;6.05;;;3.55;;
49876;SDS011;35771;48.978;9.294;2022-07-23T02:58:24;5.10;;;3.92;;
49876;SDS011;35771;48.978;9.294;2022-07-23T03:00:51;4.40;;;3.92;;
49876;SDS011;35771;48.978;9.294;2022-07-23T03:03:18;6.35;;;4.10;;
49876;SDS011;35771;48.978;9.294;2022-07-23T03:05:46;4.63;;;3.83;;
49876;SDS011;35771;48.978;9.294;2022-07-23T03:08:12;4.75;;;3.38;;
49876;SDS011;35771;48.978;9.294;2022-07-23T03:10:39;5.03;;;3.70;;
49876;SDS011;35771;48.978;9.294;2022-07-23T03:13:06;4.80;;;3.92;;
49876;SDS011;35771;48.978;9.294;2022-07-23T03:15:32;4.55;;;3.53;;
49876;SDS011;35771;48.978;9.294;2022-07-23T03:17:59;4.90;;;4.22;;
49876;SDS011;35771;48.978;9.294;2022-07-23T03:20:25;4.30;;;3.83;;
49876;SDS011;35771;48.978;9.294;2022-07-23T03:22:53;6.47;;;4.10;;
49876;SDS011;35771;48.978;9.294;2022-07-23T03:25:20;6.43;;;4.10;;
49876;SDS011;35771;48.978;9.294;2022-07-23T03:27:46;6.57;;;4.25;;
49876;SDS011;35771;48.978;9.294;2022-07-23T03:30:13;8.25;;;4.47;;
49876;SDS011;35771;48.978;9.294;2022-07-23T03:32:39;5.22;;;3.80;;
49876;SDS011;35771;48.978;9.294;2022-07-23T03:35:06;6.63;;;4.38;;
49876;SDS011;35771;48.978;9.294;2022-07-23T03:37:33;7.57;;;3.88;;
49876;SDS011;35771;48.978;9.294;2022-07-23T03:40:01;7.55;;;4.45;;
49876;SDS011;35771;48.978;9.294;2022-07-23T03:42:28;5.00;;;3.80;;
49876;SDS011;35771;48.978;9.294;2022-07-23T03:44:55;4.40;;;3.92;;
49876;SDS011;35771;48.978;9.294;2022-07-23T03:47:21;4.68;;;3.45;;
49876;SDS011;35771;48.978;9.294;2022-07-23T03:49:48;4.32;;;3.53;;
49876;SDS011;35771;48.978;9.294;2022-07-23T03:52:14;7.15;;;4.00;;
49876;SDS011;35771;48.978;9.294;2022-07-23T03:54:41;6.22;;;3.88;;
49876;SDS011;35771;48.978;9.294;2022-07-23T03:57:09;5.68;;;3.97;;
49876;SDS011;35771;48.978;9.294;2022-07-23T03:59:35;6.28;;;3.80;;
49876;SDS011;35771;48.978;9.294;2022-07-23T04:02:02;4.13;;;3.50;;
49876;SDS011;35771;48.978;9.294;2022-07-23T04:07:34;5.90;;;3.72;;
49876;SDS011;35771;48.978;9.294;2022-07-23T04:10:01;4.75;;;3.95;;
49876;SDS011;35771;48.978;9.294;2022-07-23T04:12:29;5.50;;;3.88;;
49876;SDS011;35771;48.978;9.294;2022-07-23T04:14:55;6.43;;;4.05;;
49876;SDS011;35771;48.978;9.294;2022-07-23T04:17:22;5.63;;;3.70;;
49876;SDS011;35771;48.978;9.294;2022-07-23T04:19:51;6.05;;;4.30;;
49876;SDS011;35771;48.978;9.294;2022-07-23T04:22:18;5.20;;;3.80;;
49876;SDS011;35771;48.978;9.294;2022-07-23T04:24:44;5.40;;;3.35;;
49876;SDS011;35771;48.978;9.294;2022-07-23T04:27:11;6.32;;;3.92;;
49876;SDS011;35771;48.978;9.294;2022-07-23T04:29:39;4.80;;;3.90;;
49876;SDS011;35771;48.978;9.294;2022-07-23T04:32:05;4.70;;;3.72;;
49876;SDS011;35771;48.978;9.294;2022-07-23T04:34:32;5.05;;;4.18;;
49876;SDS011;35771;48.978;9.294;2022-07-23T04:36:58;4.45;;;3.95;;
49876;SDS011;35771;48.978;9.294;2022-07-23T04:39:25;6.15;;;3.78;;
49876;SDS011;35771;48.978;9.294;2022-07-23T04:41:52;5.72;;;3.88;;
49876;SDS011;35771;48.978;9.294;2022-07-23T04:44:18;5.68;;;3.60;;
49876;SDS011;35771;48.978;9.294;2022-07-23T04:46:46;5.72;;;3.75;;
49876;SDS011;35771;48.978;9.294;2022-07-23T04:49:13;5.82;;;4.07;;
49876;SDS011;35771;48.978;9.294;2022-07-23T04:51:39;5.28;;;4.00;;
49876;SDS011;35771;48.978;9.294;2022-07-23T04:54:06;4.47;;;3.45;;
49876;SDS011;35771;48.978;9.294;2022-07-23T04:56:32;4.68;;;3.63;;
49876;SDS011;35771;48.978;9.294;2022-07-23T04:59:01;5.40;;;3.85;;
49876;SDS011;35771;48.978;9.294;2022-07-23T05:01:27;8.88;;;5.25;;
49876;SDS011;35771;48.978;9.294;2022-07-23T05:03:55;5.28;;;4.00;;
49876;SDS011;35771;48.978;9.294;2022-07-23T05:06:22;4.25;;;3.75;;
49876;SDS011;35771;48.978;9.294;2022-07-23T05:08:48;4.78;;;3.88;;
49876;SDS011;35771;48.978;9.294;2022-07-23T05:11:15;7.90;;;4.05;;
49876;SDS011;35771;48.978;9.294;2022-07-23T05:13:41;5.22;;;3.78;;
49876;SDS011;35771;48.978;9.294;2022-07-23T05:16:08;4.13;;;3.65;;
49876;SDS011;35771;48.978;9.294;2022-07-23T05:18:34;4.95;;;3.70;;
49876;SDS011;35771;48.978;9.294;2022-07-23T05:21:03;5.07;;;3.97;;
49876;SDS011;35771;48.978;9.294;2022-07-23T05:23:42;5.90;;;4.10;;
49876;SDS011;35771;48.978;9.294;2022-07-23T05:26:08;5.38;;;3.80;;
49876;SDS011;35771;48.978;9.294;2022-07-23T05:28:37;4.85;;;3.90;;
49876;SDS011;35771;48.978;9.294;2022-07-23T05:31:03;5.75;;;3.67;;
49876;SDS011;35771;48.978;9.294;2022-07-23T05:33:30;7.20;;;4.60;;
49876;SDS011;35771;48.978;9.294;2022-07-23T05:35:59;10.32;;;6.25;;
49876;SDS011;35771;48.978;9.294;2022-07-23T05:38:28;8.05;;;4.60;;
49876;SDS011;35771;48.978;9.294;2022-07-23T05:40:55;5.25;;;3.95;;
49876;SDS011;35771;48.978;9.294;2022-07-23T05:43:24;9.02;;;4.82;;
49876;SDS011;35771;48.978;9.294;2022-07-23T05:45:51;8.05;;;4.68;;
49876;SDS011;35771;48.978;9.294;2022-07-23T05:48:18;7.80;;;4.68;;
49876;SDS011;35771;48.978;9.294;2022-07-23T05:50:46;4.75;;;4.25;;
49876;SDS011;35771;48.978;9.294;2022-07-23T05:53:13;9.05;;;4.43;;
49876;SDS011;35771;48.978;9.294;2022-07-23T05:55:41;13.45;;;5.55;;
49876;SDS011;35771;48.978;9.294;2022-07-23T05:58:07;9.50;;;4.80;;
49876;SDS011;35771;48.978;9.294;2022-07-23T06:00:34;5.53;;;4.53;;
49876;SDS011;35771;48.978;9.294;2022-07-23T06:03:00;7.65;;;4.97;;
49876;SDS011;35771;48.978;9.294;2022-07-23T06:05:27;5.47;;;4.38;;
49876;SDS011;35771;48.978;9.294;2022-07-23T06:07:53;6.97;;;4.63;;
49876;SDS011;35771;48.978;9.294;2022-07-23T06:10:20;5.88;;;4.70;;
49876;SDS011;35771;48.978;9.294;2022-07-23T06:12:48;5.82;;;4.88;;
49876;SDS011;35771;48.978;9.294;2022-07-23T06:15:15;6.30;;;4.85;;
49876;SDS011;35771;48.978;9.294;2022-07-23T06:17:41;7.40;;;5.30;;
49876;SDS011;35771;48.978;9.294;2022-07-23T06:20:08;9.40;;;5.10;;
49876;SDS011;35771;48.978;9.294;2022-07-23T06:22:36;7.43;;;5.65;;
49876;SDS011;35771;48.978;9.294;2022-07-23T06:25:03;10.70;;;6.00;;
49876;SDS011;35771;48.978;9.294;2022-07-23T06:27:30;7.15;;;5.55;;
49876;SDS011;35771;48.978;9.294;2022-07-23T06:29:58;9.13;;;6.13;;
49876;SDS011;35771;48.978;9.294;2022-07-23T06:32:24;7.60;;;6.68;;
49876;SDS011;35771;48.978;9.294;2022-07-23T06:34:50;9.80;;;6.60;;
49876;SDS011;35771;48.978;9.294;2022-07-23T06:37:17;9.63;;;6.57;;
49876;SDS011;35771;48.978;9.294;2022-07-23T06:39:43;9.43;;;6.60;;
49876;SDS011;35771;48.978;9.294;2022-07-23T06:42:10;10.20;;;6.50;;
49876;SDS011;35771;48.978;9.294;2022-07-23T06:44:37;8.88;;;6.78;;
49876;SDS011;35771;48.978;9.294;2022-07-23T06:47:05;13.35;;;7.13;;
49876;SDS011;35771;48.978;9.294;2022-07-23T06:49:32;9.50;;;6.85;;
49876;SDS011;35771;48.978;9.294;2022-07-23T06:51:58;9.57;;;7.13;;
49876;SDS011;35771;48.978;9.294;2022-07-23T06:54:25;15.52;;;8.32;;
49876;SDS011;35771;48.978;9.294;2022-07-23T06:56:51;12.82;;;7.10;;
49876;SDS011;35771;48.978;9.294;2022-07-23T06:59:18;10.90;;;7.50;;
49876;SDS011;35771;48.978;9.294;2022-07-23T07:01:45;9.45;;;7.60;;
49876;SDS011;35771;48.978;9.294;2022-07-23T07:04:13;10.68;;;7.47;;
49876;SDS011;35771;48.978;9.294;2022-07-23T07:06:40;7.80;;;6.65;;
49876;SDS011;35771;48.978;9.294;2022-07-23T07:09:06;8.63;;;7.18;;
49876;SDS011;35771;48.978;9.294;2022-07-23T07:11:33;11.43;;;6.85;;
49876;SDS011;35771;48.978;9.294;2022-07-23T07:14:00;10.60;;;7.40;;
49876;SDS011;35771;48.978;9.294;2022-07-23T07:16:27;10.63;;;8.02;;
49876;SDS011;35771;48.978;9.294;2022-07-23T07:19:04;11.20;;;7.22;;
49876;SDS011;35771;48.978;9.294;2022-07-23T07:26:58;8.98;;;6.93;;
49876;SDS011;35771;48.978;9.294;2022-07-23T07:29:25;9.50;;;6.85;;
49876;SDS011;35771;48.978;9.294;2022-07-23T07:31:52;12.15;;;7.50;;
49876;SDS011;35771;48.978;9.294;2022-07-23T07:34:18;11.43;;;7.53;;
49876;SDS011;35771;48.978;9.294;2022-07-23T07:36:45;9.88;;;7.22;;
49876;SDS011;35771;48.978;9.294;2022-07-23T07:39:11;12.93;;;7.60;;
49876;SDS011;35771;48.978;9.294;2022-07-23T07:41:40;11.15;;;7.30;;
49876;SDS011;35771;48.978;9.294;2022-07-23T07:44:07;10.40;;;7.53;;
49876;SDS011;35771;48.978;9.294;2022-07-23T07:46:34;12.68;;;6.95;;
49876;SDS011;35771;48.978;9.294;2022-07-23T07:49:00;11.05;;;7.68;;
49876;SDS011;35771;48.978;9.294;2022-07-23T07:51:27;13.35;;;7.68;;
49876;SDS011;35771;48.978;9.294;2022-07-23T07:53:53;12.52;;;8.57;;
49876;SDS011;35771;48.978;9.294;2022-07-23T07:56:20;10.73;;;7.80;;
49876;SDS011;35771;48.978;9.294;2022-07-23T07:58:48;14.73;;;8.02;;
49876;SDS011;35771;48.978;9.294;2022-07-23T08:01:14;12.88;;;7.88;;
49876;SDS011;35771;48.978;9.294;2022-07-23T08:03:42;10.45;;;7.80;;
49876;SDS011;35771;48.978;9.294;2022-07-23T08:06:08;10.25;;;7.30;;
49876;SDS011;35771;48.978;9.294;2022-07-23T08:08:35;11.20;;;7.68;;
49876;SDS011;35771;48.978;9.294;2022-07-23T08:11:02;9.70;;;7.68;;
49876;SDS011;35771;48.978;9.294;2022-07-23T08:13:28;13.43;;;8.05;;
49876;SDS011;35771;48.978;9.294;2022-07-23T08:15:56;9.88;;;7.97;;
49876;SDS011;35771;48.978;9.294;2022-07-23T08:18:23;8.80;;;7.90;;
49876;SDS011;35771;48.978;9.294;2022-07-23T08:20:49;15.65;;;8.48;;
49876;SDS011;35771;48.978;9.294;2022-07-23T08:23:16;14.55;;;8.55;;
49876;SDS011;35771;48.978;9.294;2022-07-23T08:25:44;10.02;;;8.13;;
49876;SDS011;35771;48.978;9.294;2022-07-23T08:28:13;11.02;;;7.63;;
49876;SDS011;35771;48.978;9.294;2022-07-23T08:30:41;10.43;;;8.63;;
49876;SDS011;35771;48.978;9.294;2022-07-23T08:33:10;11.52;;;8.40;;
49876;SDS011;35771;48.978;9.294;2022-07-23T08:35:39;11.73;;;8.35;;
49876;SDS011;35771;48.978;9.294;2022-07-23T08:38:09;11.38;;;8.63;;
49876;SDS011;35771;48.978;9.294;2022-07-23T08:40:37;10.38;;;7.93;;
49876;SDS011;35771;48.978;9.294;2022-07-23T08:43:06;11.98;;;8.18;;
49876;SDS011;35771;48.978;9.294;2022-07-23T08:45:35;11.82;;;7.93;;
49876;SDS011;35771;48.978;9.294;2022-07-23T08:48:03;7.90;;;6.97;;
49876;SDS011;35771;48.978;9.294;2022-07-23T08:50:32;9.55;;;7.60;;
49876;SDS011;35771;48.978;9.294;2022-07-23T08:53:01;9.45;;;6.68;;
49876;SDS011;35771;48.978;9.294;2022-07-23T08:55:28;11.05;;;7.15;;
49876;SDS011;35771;48.978;9.294;2022-07-23T08:57:55;12.93;;;7.13;;
49876;SDS011;35771;48.978;9.294;2022-07-23T09:00:21;12.43;;;6.72;;
49876;SDS011;35771;48.978;9.294;2022-07-23T09:02:49;9.85;;;6.95;;
49876;SDS011;35771;48.978;9.294;2022-07-23T09:05:16;8.95;;;7.57;;
49876;SDS011;35771;48.978;9.294;2022-07-23T09:10:44;9.75;;;7.07;;
49876;SDS011;35771;48.978;9.294;2022-07-23T09:13:25;15.40;;;6.60;;
49876;SDS011;35771;48.978;9.294;2022-07-23T09:15:53;9.95;;;6.55;;
49876;SDS011;35771;48.978;9.294;2022-07-23T09:18:27;7.60;;;6.05;;
49876;SDS011;35771;48.978;9.294;2022-07-23T09:21:04;9.93;;;6.80;;
49876;SDS011;35771;48.978;9.294;2022-07-23T09:23:37;10.35;;;6.45;;
49876;SDS011;35771;48.978;9.294;2022-07-23T09:26:11;12.85;;;6.45;;
49876;SDS011;35771;48.978;9.294;2022-07-23T09:28:50;6.63;;;5.50;;
49876;SDS011;35771;48.978;9.294;2022-07-23T09:31:18;9.43;;;5.82;;
49876;SDS011;35771;48.978;9.294;2022-07-23T09:33:44;8.32;;;5.68;;
49876;SDS011;35771;48.978;9.294;2022-07-23T09:36:11;8.38;;;6.00;;
49876;SDS011;35771;48.978;9.294;2022-07-23T09:38:47;7.18;;;5.82;;
49876;SDS011;35771;48.978;9.294;2022-07-23T09:41:14;7.47;;;5.18;;
49876;SDS011;35771;48.978;9.294;2022-07-23T09:43:41;7.28;;;6.13;;
49876;SDS011;35771;48.978;9.294;2022-07-23T09:46:17;7.78;;;5.03;;
49876;SDS011;35771;48.978;9.294;2022-07-23T09:48:45;8.50;;;4.85;;
49876;SDS011;35771;48.978;9.294;2022-07-23T09:51:12;7.03;;;5.00;;
49876;SDS011;35771;48.978;9.294;2022-07-23T09:53:39;6.47;;;5.18;;
49876;SDS011;35771;48.978;9.294;2022-07-23T09:56:08;7.03;;;4.93;;
49876;SDS011;35771;48.978;9.294;2022-07-23T09:58:36;6.68;;;4.70;;
49876;SDS011;35771;48.978;9.294;2022-07-23T10:01:10;7.28;;;4.70;;
49876;SDS011;35771;48.978;9.294;2022-07-23T10:03:38;8.07;;;5.20;;
49876;SDS011;35771;48.978;9.294;2022-07-23T10:06:07;6.43;;;4.80;;
49876;SDS011;35771;48.978;9.294;2022-07-23T10:08:34;7.80;;;5.10;;
49876;SDS011;35771;48.978;9.294;2022-07-23T10:11:01;6.97;;;5.03;;
49876;SDS011;35771;48.978;9.294;2022-07-23T10:13:30;5.72;;;4.93;;
49876;SDS011;35771;48.978;9.294;2022-07-23T10:16:25;5.97;;;4.85;;
49876;SDS011;35771;48.978;9.294;2022-07-23T10:18:52;8.23;;;4.70;;
49876;SDS011;35771;48.978;9.294;2022-07-23T10:21:21;5.20;;;4.65;;
49876;SDS011;35771;48.978;9.294;2022-07-23T10:23:58;8.45;;;5.10;;
49876;SDS011;35771;48.978;9.294;2022-07-23T10:26:37;6.88;;;4.85;;
49876;SDS011;35771;48.978;9.294;2022-07-23T10:29:16;7.88;;;4.50;;
49876;SDS011;35771;48.978;9.294;2022-07-23T10:31:52;10.00;;;4.70;;
49876;SDS011;35771;48.978;9.294;2022-07-23T10:34:25;8.65;;;5.00;;
49876;SDS011;35771;48.978;9.294;2022-07-23T10:37:02;8.85;;;5.20;;
49876;SDS011;35771;48.978;9.294;2022-07-23T10:39:38;6.93;;;4.97;;
49876;SDS011;35771;48.978;9.294;2022-07-23T10:42:08;6.70;;;5.10;;
49876;SDS011;35771;48.978;9.294;2022-07-23T10:44:48;7.65;;;5.25;;
49876;SDS011;35771;48.978;9.294;2022-07-23T10:47:21;8.73;;;4.95;;
49876;SDS011;35771;48.978;9.294;2022-07-23T10:50:18;6.28;;;4.55;;
49876;SDS011;35771;48.978;9.294;2022-07-23T10:55:51;7.38;;;4.90;;
49876;SDS011;35771;48.978;9.294;2022-07-23T10:58:19;5.57;;;4.07;;
49876;SDS011;35771;48.978;9.294;2022-07-23T11:03:32;5.68;;;4.05;;
49876;SDS011;35771;48.978;9.294;2022-07-23T11:06:02;5.22;;;4.40;;
49876;SDS011;35771;48.978;9.294;2022-07-23T11:08:29;10.00;;;4.47;;
49876;SDS011;35771;48.978;9.294;2022-07-23T11:11:07;4.40;;;3.72;;
49876;SDS011;35771;48.978;9.294;2022-07-23T11:13:39;7.28;;;4.15;;
49876;SDS011;35771;48.978;9.294;2022-07-23T11:16:13;5.90;;;3.75;;
49876;SDS011;35771;48.978;9.294;2022-07-23T11:18:59;5.82;;;4.57;;
49876;SDS011;35771;48.978;9.294;2022-07-23T11:21:42;7.60;;;3.58;;
49876;SDS011;35771;48.978;9.294;2022-07-23T11:24:10;7.70;;;4.10;;
49876;SDS011;35771;48.978;9.294;2022-07-23T11:26:45;4.65;;;3.60;;
49876;SDS011;35771;48.978;9.294;2022-07-23T11:32:19;4.43;;;3.78;;
49876;SDS011;35771;48.978;9.294;2022-07-23T11:35:17;10.23;;;4.05;;
49876;SDS011;35771;48.978;9.294;2022-07-23T11:37:45;5.68;;;4.10;;
49876;SDS011;35771;48.978;9.294;2022-07-23T11:40:13;5.35;;;4.40;;
49876;SDS011;35771;48.978;9.294;2022-07-23T11:42:51;7.20;;;4.80;;
49876;SDS011;35771;48.978;9.294;2022-07-23T11:45:18;5.35;;;4.03;;
49876;SDS011;35771;48.978;9.294;2022-07-23T11:47:46;5.90;;;4.25;;
49876;SDS011;35771;48.978;9.294;2022-07-23T11:50:13;5.82;;;4.20;;
49876;SDS011;35771;48.978;9.294;2022-07-23T11:52:39;6.60;;;4.25;;
49876;SDS011;35771;48.978;9.294;2022-07-23T11:55:07;4.57;;;4.18;;
49876;SDS011;35771;48.978;9.294;2022-07-23T11:57:35;6.20;;;4.07;;
49876;SDS011;35771;48.978;9.294;2022-07-23T12:00:04;6.97;;;4.25;;
49876;SDS011;35771;48.978;9.294;2022-07-23T12:02:34;5.63;;;4.43;;
49876;SDS011;35771;48.978;9.294;2022-07-23T12:05:02;6.57;;;4.05;;
49876;SDS011;35771;48.978;9.294;2022-07-23T12:07:30;5.43;;;4.07;;
49876;SDS011;35771;48.978;9.294;2022-07-23T12:09:59;6.65;;;4.20;;
49876;SDS011;35771;48.978;9.294;2022-07-23T12:12:26;6.93;;;4.30;;
49876;SDS011;35771;48.978;9.294;2022-07-23T12:14:53;8.35;;;3.83;;
49876;SDS011;35771;48.978;9.294;2022-07-23T12:17:21;4.32;;;3.92;;
49876;SDS011;35771;48.978;9.294;2022-07-23T12:19:54;11.50;;;4.05;;
49876;SDS011;35771;48.978;9.294;2022-07-23T12:22:24;4.63;;;3.72;;
49876;SDS011;35771;48.978;9.294;2022-07-23T12:24:52;7.20;;;3.97;;
49876;SDS011;35771;48.978;9.294;2022-07-23T12:27:20;5.60;;;3.75;;
49876;SDS011;35771;48.978;9.294;2022-07-23T12:29:47;7.45;;;3.90;;
49876;SDS011;35771;48.978;9.294;2022-07-23T12:32:20;6.63;;;4.30;;
49876;SDS011;35771;48.978;9.294;2022-07-23T12:34:48;7.55;;;3.70;;
49876;SDS011;35771;48.978;9.294;2022-07-23T12:37:27;4.63;;;4.22;;
49876;SDS011;35771;48.978;9.294;2022-07-23T12:39:55;8.07;;;4.38;;
49876;SDS011;35771;48.978;9.294;2022-07-23T12:42:22;4.35;;;3.95;;
49876;SDS011;35771;48.978;9.294;2022-07-23T12:45:05;7.22;;;3.90;;
49876;SDS011;35771;48.978;9.294;2022-07-23T12:47:53;7.00;;;4.70;;
49876;SDS011;35771;48.978;9.294;2022-07-23T12:50:42;5.95;;;4.32;;
49876;SDS011;35771;48.978;9.294;2022-07-23T12:53:13;7.22;;;4.30;;
49876;SDS011;35771;48.978;9.294;2022-07-23T12:55:41;6.40;;;4.47;;
49876;SDS011;35771;48.978;9.294;2022-07-23T12:58:10;4.90;;;4.05;;
49876;SDS011;35771;48.978;9.294;2022-07-23T13:00:58;5.40;;;3.95;;
49876;SDS011;35771;48.978;9.294;2022-07-23T13:03:31;6.70;;;4.30;;
49876;SDS011;35771;48.978;9.294;2022-07-23T13:08:29;6.78;;;4.43;;
49876;SDS011;35771;48.978;9.294;2022-07-23T13:10:57;8.00;;;4.47;;
49876;SDS011;35771;48.978;9.294;2022-07-23T13:13:26;6.65;;;4.82;;
49876;SDS011;35771;48.978;9.294;2022-07-23T13:15:55;7.38;;;4.50;;
49876;SDS011;35771;48.978;9.294;2022-07-23T13:18:29;6.43;;;4.32;;
49876;SDS011;35771;48.978;9.294;2022-07-23T13:20:55;6.03;;;4.43;;
49876;SDS011;35771;48.978;9.294;2022-07-23T13:23:23;8.95;;;4.82;;
49876;SDS011;35771;48.978;9.294;2022-07-23T13:25:51;6.00;;;4.47;;
49876;SDS011;35771;48.978;9.294;2022-07-23T13:28:18;6.15;;;4.30;;
49876;SDS011;35771;48.978;9.294;2022-07-23T13:30:45;6.07;;;4.43;;
49876;SDS011;35771;48.978;9.294;2022-07-23T13:33:14;6.28;;;5.03;;
49876;SDS011;35771;48.978;9.294;2022-07-23T13:35:41;10.02;;;5.80;;
49876;SDS011;35771;48.978;9.294;2022-07-23T13:38:07;7.60;;;4.63;;
49876;SDS011;35771;48.978;9.294;2022-07-23T13:40:35;7.22;;;4.68;;
49876;SDS011;35771;48.978;9.294;2022-07-23T13:43:04;5.95;;;4.53;;
49876;SDS011;35771;48.978;9.294;2022-07-23T13:45:31;7.28;;;4.80;;
49876;SDS011;35771;48.978;9.294;2022-07-23T13:47:58;4.57;;;4.13;;
49876;SDS011;35771;48.978;9.294;2022-07-23T13:50:25;8.68;;;4.57;;
49876;SDS011;35771;48.978;9.294;2022-07-23T13:52:52;7.45;;;5.68;;
49876;SDS011;35771;48.978;9.294;2022-07-23T13:55:18;6.95;;;4.85;;
49876;SDS011;35771;48.978;9.294;2022-07-23T13:57:45;5.75;;;4.57;;
49876;SDS011;35771;48.978;9.294;2022-07-23T14:00:13;5.78;;;4.28;;
49876;SDS011;35771;48.978;9.294;2022-07-23T14:02:40;9.57;;;4.18;;
49876;SDS011;35771;48.978;9.294;2022-07-23T14:05:08;9.80;;;4.35;;
49876;SDS011;35771;48.978;9.294;2022-07-23T14:07:36;4.95;;;4.40;;
49876;SDS011;35771;48.978;9.294;2022-07-23T14:10:03;10.27;;;4.90;;
49876;SDS011;35771;48.978;9.294;2022-07-23T14:12:31;6.13;;;4.00;;
49876;SDS011;35771;48.978;9.294;2022-07-23T14:14:57;6.03;;;4.32;;
49876;SDS011;35771;48.978;9.294;2022-07-23T14:17:25;5.10;;;4.53;;
49876;SDS011;35771;48.978;9.294;2022-07-23T14:19:52;4.80;;;4.22;;
49876;SDS011;35771;48.978;9.294;2022-07-23T14:22:18;6.13;;;4.40;;
49876;SDS011;35771;48.978;9.294;2022-07-23T14:24:45;4.30;;;3.90;;
49876;SDS011;35771;48.978;9.294;2022-07-23T14:27:11;20.33;;;5.30;;
49876;SDS011;35771;48.978;9.294;2022-07-23T14:29:38;6.72;;;3.90;;
49876;SDS011;35771;48.978;9.294;2022-07-23T14:32:05;5.18;;;4.30;;
49876;SDS011;35771;48.978;9.294;2022-07-23T14:34:33;5.20;;;4.28;;
49876;SDS011;35771;48.978;9.294;2022-07-23T14:37:00;6.93;;;4.75;;
49876;SDS011;35771;48.978;9.294;2022-07-23T14:39:28;7.43;;;4.38;;
49876;SDS011;35771;48.978;9.294;2022-07-23T14:41:55;4.80;;;4.28;;
49876;SDS011;35771;48.978;9.294;2022-07-23T14:44:21;5.53;;;4.38;;
49876;SDS011;35771;48.978;9.294;2022-07-23T14:46:48;6.53;;;4.63;;
49876;SDS011;35771;48.978;9.294;2022-07-23T14:49:14;6.30;;;5.07;;
49876;SDS011;35771;48.978;9.294;2022-07-23T14:51:42;7.70;;;5.13;;
49876;SDS011;35771;48.978;9.294;2022-07-23T14:54:09;7.22;;;4.78;;
49876;SDS011;35771;48.978;9.294;2022-07-23T14:56:36;4.60;;;4.18;;
49876;SDS011;35771;48.978;9.294;2022-07-23T14:59:03;5.82;;;4.90;;
49876;SDS011;35771;48.978;9.294;2022-07-23T15:01:30;9.15;;;4.78;;
49876;SDS011;35771;48.978;9.294;2022-07-23T15:03:56;5.13;;;4.63;;
49876;SDS011;35771;48.978;9.294;2022-07-23T15:06:23;4.97;;;4.47;;
49876;SDS011;35771;48.978;9.294;2022-07-23T15:08:51;6.07;;;4.90;;
49876;SDS011;35771;48.978;9.294;2022-07-23T15:11:18;5.80;;;4.85;;
49876;SDS011;35771;48.978;9.294;2022-07-23T15:13:45;8.82;;;5.13;;
49876;SDS011;35771;48.978;9.294;2022-07-23T15:16:12;8.88;;;5.30;;